createdAt,value
2022-08-22T00:02:44.408Z,12.41
2022-08-22T00:02:55.668Z,11.66
2022-08-22T00:03:01.117Z,13.46
2022-08-22T00:03:11.175Z,12.02
2022-08-22T00:05:48.567Z,11.34
2022-08-22T00:08:38.765Z,11.41
2022-08-22T00:11:23.567Z,11.37
2022-08-22T00:14:01.502Z,11.42
2022-08-22T00:16:55.298Z,11.45
2022-08-22T00:19:44.676Z,11.40
2022-08-22T00:22:21.529Z,11.39
2022-08-22T00:25:25.733Z,11.36
2022-08-22T00:28:15.510Z,11.42
2022-08-22T00:31:16.087Z,11.46
2022-08-22T00:33:46.974Z,11.50
2022-08-22T00:36:25.895Z,11.43
2022-08-22T00:39:17.141Z,11.47
2022-08-22T00:42:01.770Z,11.43
2022-08-22T00:44:49.866Z,11.34
2022-08-22T00:47:37.303Z,11.32
2022-08-22T00:50:18.991Z,11.29
2022-08-22T00:53:11.786Z,11.30
2022-08-22T00:55:44.493Z,11.34
2022-08-22T00:58:25.989Z,11.26
2022-08-22T01:00:59.908Z,11.24
2022-08-22T01:03:44.788Z,11.24
2022-08-22T01:06:31.779Z,11.26
2022-08-22T01:09:39.781Z,11.17
2022-08-22T01:12:21.002Z,11.15
2022-08-22T01:14:55.084Z,11.06
2022-08-22T01:17:21.605Z,11.09
2022-08-22T01:20:10.576Z,11.14
2022-08-22T01:23:09.464Z,11.12
2022-08-22T01:26:13.426Z,11.05
2022-08-22T01:29:16.898Z,11.07
2022-08-22T01:31:56.537Z,11.04
2022-08-22T01:34:59.333Z,11.04
2022-08-22T01:37:50.840Z,11.04
2022-08-22T01:40:59.108Z,11.07
2022-08-22T01:43:58.856Z,11.05
2022-08-22T01:46:39.541Z,11.02
2022-08-22T01:52:36.483Z,10.95
2022-08-22T01:55:04.974Z,10.92
2022-08-22T01:57:31.609Z,10.84
2022-08-22T01:59:59.531Z,10.92
2022-08-22T02:02:50.571Z,11.01
2022-08-22T02:05:17.063Z,11.00
2022-08-22T02:07:48.705Z,10.99
2022-08-22T02:10:24.333Z,10.98
2022-08-22T02:13:12.298Z,10.96
2022-08-22T02:15:38.802Z,10.99
2022-08-22T02:18:05.320Z,11.03
2022-08-22T02:21:02.784Z,11.00
2022-08-22T02:23:44.471Z,10.95
2022-08-22T02:26:25.989Z,10.99
2022-08-22T02:29:28.237Z,10.94
2022-08-22T02:32:06.483Z,10.92
2022-08-22T02:35:10.515Z,10.96
2022-08-22T02:37:40.900Z,10.98
2022-08-22T02:40:16.406Z,11.01
2022-08-22T02:42:51.794Z,11.01
2022-08-22T02:45:45.890Z,11.03
2022-08-22T02:48:22.125Z,11.04
2022-08-22T02:51:06.580Z,11.15
2022-08-22T02:53:37.890Z,11.16
2022-08-22T02:56:15.234Z,11.27
2022-08-22T02:58:54.036Z,11.19
2022-08-22T03:01:28.890Z,11.25
2022-08-22T03:04:23.475Z,11.33
2022-08-22T03:07:07.915Z,11.30
2022-08-22T03:09:42.136Z,11.31
2022-08-22T03:12:17.401Z,11.32
2022-08-22T03:15:08.087Z,11.38
2022-08-22T03:17:39.108Z,11.46
2022-08-22T03:20:33.456Z,11.39
2022-08-22T03:23:05.688Z,11.44
2022-08-22T03:25:47.032Z,11.39
2022-08-22T03:28:16.011Z,11.39
2022-08-22T03:30:57.774Z,11.43
2022-08-22T03:33:28.353Z,11.38
2022-08-22T03:36:09.564Z,11.37
2022-08-22T03:38:36.020Z,11.26
2022-08-22T03:41:21.084Z,11.27
2022-08-22T03:44:16.473Z,11.25
2022-08-22T03:47:18.234Z,11.20
2022-08-22T03:50:06.629Z,11.06
2022-08-22T03:52:51.071Z,11.07
2022-08-22T03:55:33.258Z,10.95
2022-08-22T03:58:12.016Z,10.87
2022-08-22T04:01:22.131Z,10.89
2022-08-22T04:04:22.922Z,10.82
2022-08-22T04:07:05.897Z,10.82
2022-08-22T04:10:08.590Z,10.83
2022-08-22T04:13:06.579Z,10.67
2022-08-22T04:16:04.137Z,10.60
2022-08-22T04:18:39.755Z,10.58
2022-08-22T04:21:19.364Z,10.62
2022-08-22T04:23:48.820Z,10.53
2022-08-22T04:26:21.604Z,10.56
2022-08-22T04:28:50.798Z,10.49
2022-08-22T04:31:28.442Z,10.43
2022-08-22T04:34:10.672Z,10.43
2022-08-22T04:36:45.699Z,10.34
2022-08-22T04:39:22.081Z,10.35
2022-08-22T04:42:31.657Z,10.33
2022-08-22T04:45:09.887Z,10.33
2022-08-22T04:47:57.002Z,10.39
2022-08-22T04:50:36.604Z,10.30
2022-08-22T04:53:26.426Z,10.34
2022-08-22T04:56:07.096Z,10.23
2022-08-22T04:58:52.772Z,10.31
2022-08-22T05:01:33.406Z,10.33
2022-08-22T05:04:16.183Z,10.25
2022-08-22T05:06:44.438Z,10.30
2022-08-22T05:09:16.197Z,10.25
2022-08-22T05:11:43.041Z,10.23
2022-08-22T05:14:23.789Z,10.21
2022-08-22T05:16:50.960Z,10.23
2022-08-22T05:19:27.484Z,10.20
2022-08-22T05:21:57.916Z,10.25
2022-08-22T05:24:28.338Z,10.27
2022-08-22T05:26:55.451Z,10.29
2022-08-22T05:29:24.583Z,10.30
2022-08-22T05:32:02.416Z,10.38
2022-08-22T05:34:34.986Z,10.38
2022-08-22T05:37:13.333Z,10.43
2022-08-22T05:39:41.296Z,10.56
2022-08-22T05:42:13.161Z,10.62
2022-08-22T05:44:39.782Z,10.63
2022-08-22T05:47:23.757Z,10.71
2022-08-22T05:50:04.632Z,10.76
2022-08-22T05:52:49.876Z,10.82
2022-08-22T05:55:27.604Z,10.86
2022-08-22T05:58:20.117Z,10.91
2022-08-22T06:00:48.743Z,11.06
2022-08-22T06:03:24.642Z,11.08
2022-08-22T06:05:52.290Z,11.16
2022-08-22T06:08:20.712Z,11.24
2022-08-22T06:10:49.562Z,11.31
2022-08-22T06:13:24.637Z,11.47
2022-08-22T06:16:01.118Z,11.38
2022-08-22T06:18:27.796Z,11.53
2022-08-22T06:21:06.536Z,11.51
2022-08-22T06:23:37.504Z,11.57
2022-08-22T06:26:04.516Z,11.67
2022-08-22T06:28:37.548Z,11.76
2022-08-22T06:31:23.447Z,11.85
2022-08-22T06:33:57.744Z,11.87
2022-08-22T06:36:24.575Z,12.02
2022-08-22T06:39:08.923Z,12.11
2022-08-22T06:41:53.652Z,12.16
2022-08-22T06:44:22.611Z,12.29
2022-08-22T06:46:52.661Z,12.39
2022-08-22T06:49:19.291Z,12.47
2022-08-22T06:51:45.974Z,12.61
2022-08-22T06:54:17.674Z,12.72
2022-08-22T06:56:46.006Z,12.91
2022-08-22T06:59:17.170Z,12.98
2022-08-22T07:01:46.833Z,13.08
2022-08-22T07:04:13.478Z,13.18
2022-08-22T07:06:42.013Z,13.24
2022-08-22T07:09:18.773Z,13.45
2022-08-22T07:11:45.611Z,13.57
2022-08-22T07:14:16.523Z,13.73
2022-08-22T07:16:44.082Z,13.86
2022-08-22T07:19:26.321Z,14.12
2022-08-22T07:21:53.302Z,14.33
2022-08-22T07:24:22.746Z,14.55
2022-08-22T07:27:07.504Z,14.80
2022-08-22T07:30:02.073Z,15.25
2022-08-22T07:32:54.124Z,16.09
2022-08-22T07:35:20.803Z,16.57
2022-08-22T07:37:53.107Z,16.97
2022-08-22T07:40:27.410Z,17.22
2022-08-22T07:42:57.070Z,17.42
2022-08-22T07:45:51.180Z,17.92
2022-08-22T07:48:26.220Z,18.63
2022-08-22T07:51:05.357Z,19.56
2022-08-22T07:54:11.723Z,20.53
2022-08-22T07:56:41.942Z,21.41
2022-08-22T07:59:12.728Z,21.87
2022-08-22T08:01:45.673Z,22.14
2022-08-22T08:04:14.764Z,22.12
2022-08-22T08:06:41.501Z,22.26
2022-08-22T08:09:08.602Z,22.64
2022-08-22T08:11:39.098Z,22.78
2022-08-22T08:14:06.256Z,23.04
2022-08-22T08:16:40.320Z,23.30
2022-08-22T08:19:07.009Z,22.98
2022-08-22T08:21:54.369Z,22.97
2022-08-22T08:24:24.741Z,23.43
2022-08-22T08:26:54.497Z,23.39
2022-08-22T08:29:21.805Z,23.37
2022-08-22T08:31:49.360Z,23.65
2022-08-22T08:34:19.419Z,23.94
2022-08-22T08:36:54.227Z,24.13
2022-08-22T08:39:35.429Z,24.19
2022-08-22T08:42:29.672Z,24.54
2022-08-22T08:45:21.951Z,24.68
2022-08-22T08:48:15.013Z,25.09
2022-08-22T08:51:11.209Z,25.34
2022-08-22T08:54:22.430Z,25.58
2022-08-22T08:56:57.974Z,25.74
2022-08-22T08:59:44.341Z,25.91
2022-08-22T09:02:42.282Z,26.09
2022-08-22T09:05:37.122Z,26.38
2022-08-22T09:08:25.591Z,26.13
2022-08-22T09:11:28.323Z,26.17
2022-08-22T09:14:16.303Z,26.47
2022-08-22T09:17:06.857Z,26.37
2022-08-22T09:20:17.514Z,26.57
2022-08-22T09:23:10.877Z,26.49
2022-08-22T09:25:55.956Z,25.82
2022-08-22T09:28:42.871Z,25.02
2022-08-22T09:31:46.484Z,25.45
2022-08-22T09:34:29.436Z,25.34
2022-08-22T09:36:56.107Z,24.67
2022-08-22T09:39:34.715Z,24.01
2022-08-22T09:42:18.750Z,23.52
2022-08-22T09:45:06.835Z,24.03
2022-08-22T09:47:39.267Z,24.68
2022-08-22T09:50:47.299Z,25.48
2022-08-22T09:53:57.014Z,25.32
2022-08-22T09:56:55.960Z,25.87
2022-08-22T09:59:45.894Z,25.96
2022-08-22T10:02:35.930Z,26.87
2022-08-22T10:05:40.657Z,26.51
2022-08-22T10:08:19.558Z,26.19
2022-08-22T10:10:52.728Z,25.87
2022-08-22T10:13:24.302Z,26.08
2022-08-22T10:15:59.716Z,26.28
2022-08-22T10:18:43.946Z,26.32
2022-08-22T10:21:30.766Z,26.23
2022-08-22T10:24:14.648Z,25.99
2022-08-22T10:27:04.182Z,25.90
2022-08-22T10:29:41.231Z,25.88
2022-08-22T10:32:38.672Z,25.43
2022-08-22T10:35:12.541Z,25.03
2022-08-22T10:38:00.890Z,25.56
2022-08-22T10:40:39.800Z,25.86
2022-08-22T10:43:14.888Z,25.34
2022-08-22T10:45:46.167Z,25.20
2022-08-22T10:48:39.828Z,25.18
2022-08-22T10:51:28.851Z,25.23
2022-08-22T10:54:27.424Z,25.44
2022-08-22T10:57:12.531Z,25.29
2022-08-22T10:59:44.465Z,25.19
2022-08-22T11:02:39.209Z,25.44
2022-08-22T11:05:30.723Z,25.61
2022-08-22T11:08:30.128Z,24.93
2022-08-22T11:11:10.229Z,25.22
2022-08-22T11:14:07.347Z,25.00
2022-08-22T11:16:59.656Z,24.97
2022-08-22T11:19:45.768Z,24.74
2022-08-22T11:22:21.533Z,24.37
2022-08-22T11:25:05.992Z,23.72
2022-08-22T11:28:18.771Z,23.27
2022-08-22T11:31:09.495Z,23.02
2022-08-22T11:34:13.887Z,23.53
2022-08-22T11:36:53.322Z,24.14
2022-08-22T11:39:44.266Z,24.29
2022-08-22T11:42:29.993Z,24.81
2022-08-22T11:44:57.470Z,25.06
2022-08-22T11:47:27.409Z,25.08
2022-08-22T11:50:14.261Z,24.82
2022-08-22T11:52:53.289Z,24.69
2022-08-22T11:55:32.536Z,24.37
2022-08-22T11:58:16.304Z,24.05
2022-08-22T12:01:23.461Z,23.98
2022-08-22T12:03:58.650Z,24.14
2022-08-22T12:06:48.332Z,24.03
2022-08-22T12:09:19.493Z,23.87
2022-08-22T12:12:16.009Z,23.86
2022-08-22T12:14:51.729Z,23.69
2022-08-22T12:17:56.015Z,23.55
2022-08-22T12:20:40.900Z,23.68
2022-08-22T12:23:17.298Z,23.59
2022-08-22T12:26:02.153Z,23.48
2022-08-22T12:28:50.533Z,23.30
2022-08-22T12:32:03.068Z,23.02
2022-08-22T12:34:55.886Z,22.80
2022-08-22T12:37:27.718Z,22.53
2022-08-22T12:40:16.277Z,22.44
2022-08-22T12:42:55.228Z,22.30
2022-08-22T12:45:46.315Z,22.24
2022-08-22T12:48:35.933Z,22.32
2022-08-22T12:51:29.383Z,22.13
2022-08-22T12:54:11.801Z,22.13
2022-08-22T12:56:47.679Z,22.33
2022-08-22T12:59:31.621Z,22.34
2022-08-22T13:02:11.444Z,22.35
2022-08-22T13:04:45.096Z,22.28
2022-08-22T13:07:23.172Z,22.30
2022-08-22T13:10:03.153Z,22.33
2022-08-22T13:12:38.068Z,22.38
2022-08-22T13:15:29.363Z,22.27
2022-08-22T13:18:08.663Z,22.17
2022-08-22T13:20:44.571Z,22.09
2022-08-22T13:23:13.620Z,21.97
2022-08-22T13:26:00.659Z,21.82
2022-08-22T13:28:30.113Z,21.74
2022-08-22T13:30:57.163Z,21.70
2022-08-22T13:33:28.106Z,21.63
2022-08-22T13:36:06.512Z,21.51
2022-08-22T13:39:08.812Z,21.38
2022-08-22T13:41:46.951Z,21.31
2022-08-22T13:44:19.247Z,21.22
2022-08-22T13:47:10.804Z,21.18
2022-08-22T13:49:36.412Z,21.13
2022-08-22T13:52:28.921Z,21.08
2022-08-22T13:55:02.890Z,21.06
2022-08-22T13:57:34.044Z,21.02
2022-08-22T14:00:35.473Z,20.99
2022-08-22T14:03:50.210Z,20.98
2022-08-22T14:06:37.263Z,20.97
2022-08-22T14:09:33.976Z,20.93
2022-08-22T14:12:23.990Z,20.98
2022-08-22T14:15:11.277Z,21.08
2022-08-22T14:17:42.990Z,21.16
2022-08-22T14:20:13.475Z,21.27
2022-08-22T14:23:04.824Z,21.35
2022-08-22T14:25:34.738Z,21.52
2022-08-22T14:28:06.338Z,21.80
2022-08-22T14:30:54.631Z,21.84
2022-08-22T14:33:47.273Z,21.75
2022-08-22T14:36:19.841Z,21.67
2022-08-22T14:38:58.562Z,21.87
2022-08-22T14:41:52.578Z,21.85
2022-08-22T14:44:31.534Z,21.74
2022-08-22T14:47:03.825Z,21.72
2022-08-22T14:49:51.492Z,21.83
2022-08-22T14:52:40.781Z,21.91
2022-08-22T14:55:14.848Z,21.85
2022-08-22T14:57:54.696Z,21.79
2022-08-22T15:00:28.618Z,21.69
2022-08-22T15:03:07.217Z,21.61
2022-08-22T15:05:45.661Z,21.52
2022-08-22T15:08:12.684Z,21.50
2022-08-22T15:10:42.321Z,21.50
2022-08-22T15:13:09.192Z,21.63
2022-08-22T15:15:41.196Z,21.50
2022-08-22T15:18:28.508Z,21.37
2022-08-22T15:21:08.568Z,21.33
2022-08-22T15:23:45.164Z,21.45
2022-08-22T15:26:26.813Z,21.44
2022-08-22T15:29:04.433Z,21.45
2022-08-22T15:31:31.508Z,21.49
2022-08-22T15:34:06.441Z,21.39
2022-08-22T15:36:33.191Z,21.37
2022-08-22T15:39:26.505Z,21.13
2022-08-22T15:41:53.922Z,21.15
2022-08-22T15:44:32.207Z,21.16
2022-08-22T15:47:10.921Z,21.20
2022-08-22T15:50:05.715Z,21.31
2022-08-22T15:52:33.843Z,21.17
2022-08-22T15:55:16.168Z,21.22
2022-08-22T15:57:51.021Z,21.25
2022-08-22T16:00:30.347Z,21.15
2022-08-22T16:03:03.843Z,21.36
2022-08-22T16:06:04.339Z,21.23
2022-08-22T16:08:37.839Z,20.99
2022-08-22T16:11:04.423Z,21.00
2022-08-22T16:13:30.911Z,20.99
2022-08-22T16:16:09.520Z,21.21
2022-08-22T16:18:39.031Z,21.28
2022-08-22T16:21:10.100Z,21.29
2022-08-22T16:23:49.595Z,21.31
2022-08-22T16:26:31.614Z,21.43
2022-08-22T16:29:25.073Z,21.36
2022-08-22T16:31:51.548Z,21.28
2022-08-22T16:34:18.283Z,21.27
2022-08-22T16:36:50.896Z,21.16
2022-08-22T16:39:20.699Z,20.99
2022-08-22T16:41:51.574Z,20.97
2022-08-22T16:44:30.108Z,20.97
2022-08-22T16:47:17.318Z,20.97
2022-08-22T16:49:49.888Z,20.94
2022-08-22T16:52:25.512Z,20.84
2022-08-22T16:54:55.057Z,20.67
2022-08-22T16:57:34.358Z,20.50
2022-08-22T17:00:23.692Z,20.32
2022-08-22T17:02:56.276Z,20.17
2022-08-22T17:05:40.713Z,19.95
2022-08-22T17:08:07.223Z,19.91
2022-08-22T17:10:39.652Z,19.74
2022-08-22T17:13:19.140Z,19.68
2022-08-22T17:15:59.487Z,19.48
2022-08-22T17:18:46.074Z,19.23
2022-08-22T17:21:15.786Z,19.14
2022-08-22T17:23:53.262Z,19.12
2022-08-22T17:26:24.053Z,19.10
2022-08-22T17:29:12.453Z,18.99
2022-08-22T17:32:03.032Z,18.88
2022-08-22T17:34:47.715Z,18.89
2022-08-22T17:37:21.968Z,18.74
2022-08-22T17:40:04.193Z,18.63
2022-08-22T17:42:55.780Z,18.58
2022-08-22T17:45:32.756Z,18.66
2022-08-22T17:48:12.228Z,18.54
2022-08-22T17:50:49.929Z,18.48
2022-08-22T17:53:27.936Z,18.41
2022-08-22T17:56:03.865Z,18.23
2022-08-22T17:58:44.000Z,18.22
2022-08-22T18:01:50.478Z,18.05
2022-08-22T18:04:24.691Z,18.10
2022-08-22T18:07:22.148Z,17.99
2022-08-22T18:09:52.181Z,17.81
2022-08-22T18:12:45.298Z,17.71
2022-08-22T18:15:18.858Z,17.71
2022-08-22T18:18:07.340Z,17.67
2022-08-22T18:20:39.932Z,17.55
2022-08-22T18:23:21.666Z,17.57
2022-08-22T18:26:04.612Z,17.42
2022-08-22T18:28:35.740Z,17.39
2022-08-22T18:31:58.011Z,17.28
2022-08-22T18:34:55.809Z,17.23
2022-08-22T18:37:41.990Z,17.11
2022-08-22T18:40:30.103Z,17.13
2022-08-22T18:43:11.928Z,17.07
2022-08-22T18:45:47.525Z,17.08
2022-08-22T18:48:54.393Z,16.97
2022-08-22T18:51:31.233Z,16.91
2022-08-22T18:54:05.234Z,16.87
2022-08-22T18:56:31.784Z,16.81
2022-08-22T18:59:13.516Z,16.80
2022-08-22T19:02:18.485Z,16.73
2022-08-22T19:05:14.608Z,16.71
2022-08-22T19:07:59.547Z,16.61
2022-08-22T19:10:40.837Z,16.59
2022-08-22T19:13:24.681Z,16.55
2022-08-22T19:16:25.024Z,16.49
2022-08-22T19:18:53.291Z,16.43
2022-08-22T19:21:28.841Z,16.41
2022-08-22T19:23:55.572Z,16.38
2022-08-22T19:26:23.134Z,16.31
2022-08-22T19:28:58.228Z,16.20
2022-08-22T19:31:36.963Z,16.13
2022-08-22T19:34:28.520Z,16.09
2022-08-22T19:37:30.665Z,16.09
2022-08-22T19:40:08.654Z,15.96
2022-08-22T19:42:35.839Z,15.94
2022-08-22T19:45:08.336Z,15.87
2022-08-22T19:47:39.790Z,15.88
2022-08-22T19:50:30.952Z,15.85
2022-08-22T19:53:22.204Z,15.75
2022-08-22T19:56:21.084Z,15.76
2022-08-22T19:59:01.249Z,15.55
2022-08-22T20:01:40.024Z,15.47
2022-08-22T20:04:22.217Z,15.31
2022-08-22T20:06:51.573Z,15.28
2022-08-22T20:09:40.809Z,15.25
2022-08-22T20:12:33.698Z,15.25
2022-08-22T20:15:17.820Z,15.25
2022-08-22T20:17:44.678Z,15.22
2022-08-22T20:20:35.105Z,15.29
2022-08-22T20:23:20.086Z,15.29
2022-08-22T20:25:50.678Z,15.32
2022-08-22T20:28:26.357Z,15.36
2022-08-22T20:30:57.096Z,15.18
2022-08-22T20:33:29.546Z,15.14
2022-08-22T20:36:01.705Z,15.05
2022-08-22T20:38:55.440Z,14.98
2022-08-22T20:41:31.773Z,14.90
2022-08-22T20:44:16.720Z,14.88
2022-08-22T20:47:04.663Z,14.90
2022-08-22T20:49:37.756Z,14.84
2022-08-22T20:52:12.233Z,14.83
2022-08-22T20:54:40.676Z,14.83
2022-08-22T20:57:18.034Z,14.79
2022-08-22T20:59:52.524Z,14.80
2022-08-22T21:02:37.868Z,14.71
2022-08-22T21:05:13.426Z,14.65
2022-08-22T21:07:42.518Z,14.64
2022-08-22T21:10:22.338Z,14.58
2022-08-22T21:13:06.277Z,14.56
2022-08-22T21:15:47.438Z,14.54
2022-08-22T21:18:30.536Z,14.47
2022-08-22T21:21:17.199Z,14.46
2022-08-22T21:23:46.499Z,14.43
2022-08-22T21:26:20.090Z,14.43
2022-08-22T21:28:49.588Z,14.41
2022-08-22T21:31:19.372Z,14.38
2022-08-22T21:33:48.756Z,14.34
2022-08-22T21:36:18.664Z,14.30
2022-08-22T21:38:56.429Z,14.24
2022-08-22T21:41:44.166Z,14.30
2022-08-22T21:44:32.650Z,14.25
2022-08-22T21:47:14.762Z,14.22
2022-08-22T21:50:09.391Z,14.17
2022-08-22T21:52:37.769Z,14.11
2022-08-22T21:55:22.636Z,14.09
2022-08-22T21:58:01.670Z,14.10
2022-08-22T22:00:48.500Z,14.05
2022-08-22T22:03:16.760Z,14.04
2022-08-22T22:05:43.543Z,14.01
2022-08-22T22:08:10.542Z,13.91
2022-08-22T22:10:38.296Z,13.78
2022-08-22T22:13:05.970Z,13.77
2022-08-22T22:15:35.885Z,13.81
2022-08-22T22:18:02.973Z,13.87
2022-08-22T22:20:29.709Z,13.84
2022-08-22T22:22:56.349Z,13.75
2022-08-22T22:25:39.883Z,13.67
2022-08-22T22:28:13.995Z,13.64
2022-08-22T22:30:40.711Z,13.62
2022-08-22T22:33:07.363Z,13.63
2022-08-22T22:35:33.996Z,13.65
2022-08-22T22:38:00.974Z,13.70
2022-08-22T22:40:27.825Z,13.65
2022-08-22T22:42:54.625Z,13.62
2022-08-22T22:45:21.243Z,13.59
2022-08-22T22:47:48.033Z,13.54
2022-08-22T22:50:14.741Z,13.47
2022-08-22T22:52:41.326Z,13.49
2022-08-22T22:55:08.920Z,13.49
2022-08-22T22:57:41.338Z,13.52
2022-08-22T23:00:10.307Z,13.46
2022-08-22T23:02:36.952Z,13.43
2022-08-22T23:05:03.771Z,13.41
2022-08-22T23:07:30.490Z,13.36
2022-08-22T23:10:01.497Z,13.41
2022-08-22T23:12:28.940Z,13.38
2022-08-22T23:14:55.608Z,13.43
2022-08-22T23:17:22.264Z,13.44
2022-08-22T23:19:50.407Z,13.43
2022-08-22T23:22:17.066Z,13.46
2022-08-22T23:24:43.644Z,13.33
2022-08-22T23:27:10.522Z,13.29
2022-08-22T23:29:38.291Z,13.16
2022-08-22T23:32:05.101Z,13.19
2022-08-22T23:34:33.907Z,13.28
2022-08-22T23:37:01.469Z,13.17
2022-08-22T23:39:29.092Z,13.15
2022-08-22T23:41:56.049Z,13.05
2022-08-22T23:44:24.956Z,12.99
2022-08-22T23:46:51.680Z,13.00
2022-08-22T23:49:18.355Z,13.09
2022-08-22T23:51:45.071Z,13.05
2022-08-22T23:54:11.794Z,13.05
2022-08-22T23:56:40.424Z,12.96
2022-08-22T23:59:09.409Z,12.89
